createdAt,value
2019-04-01T00:01:51.217Z,81.69
2019-04-01T00:04:20.118Z,81.01
2019-04-01T00:06:49.052Z,80.90
2019-04-01T00:09:17.638Z,81.08
2019-04-01T00:11:46.258Z,80.51
2019-04-01T00:14:15.289Z,81.42
2019-04-01T00:16:44.480Z,81.17
2019-04-01T00:19:13.107Z,80.61
2019-04-01T00:21:44.493Z,80.60
2019-04-01T00:24:12.391Z,80.77
2019-04-01T00:26:41.277Z,80.41
2019-04-01T00:29:10.249Z,80.51
2019-04-01T00:31:38.863Z,80.34
2019-04-01T00:34:07.916Z,81.11
2019-04-01T00:36:37.155Z,82.02
2019-04-01T00:39:07.164Z,82.91
2019-04-01T00:41:41.704Z,82.08
2019-04-01T00:44:12.473Z,82.05
2019-04-01T00:46:41.478Z,82.33
2019-04-01T00:49:10.410Z,83.19
2019-04-01T00:51:39.407Z,82.04
2019-04-01T00:54:08.036Z,82.44
2019-04-01T00:56:36.983Z,83.20
2019-04-01T00:59:05.982Z,83.64
2019-04-01T01:01:34.612Z,84.41
2019-04-01T01:04:03.265Z,84.37
2019-04-01T01:06:32.551Z,84.67
2019-04-01T01:09:01.440Z,83.96
2019-04-01T01:11:30.370Z,84.00
2019-04-01T01:13:59.006Z,83.34
2019-04-01T01:16:28.015Z,83.82
2019-04-01T01:18:57.246Z,83.55
2019-04-01T01:21:26.193Z,83.08
2019-04-01T01:23:55.402Z,82.29
2019-04-01T01:26:24.061Z,82.65
2019-04-01T01:28:52.706Z,83.67
2019-04-01T01:31:21.357Z,84.88
2019-04-01T01:33:50.668Z,84.22
2019-04-01T01:36:19.553Z,83.74
2019-04-01T01:38:48.469Z,83.63
2019-04-01T01:41:17.094Z,83.18
2019-04-01T01:43:46.026Z,82.73
2019-04-01T01:46:15.638Z,83.16
2019-04-01T01:48:44.830Z,83.26
2019-04-01T01:51:13.718Z,82.80
2019-04-01T01:53:43.026Z,82.48
2019-04-01T01:56:11.892Z,83.25
2019-04-01T01:58:40.541Z,82.61
2019-04-01T02:01:09.489Z,82.75
2019-04-01T02:03:38.115Z,82.99
2019-04-01T02:06:07.069Z,82.64
2019-04-01T02:08:35.697Z,82.64
2019-04-01T02:11:07.001Z,83.63
2019-04-01T02:13:35.898Z,83.60
2019-04-01T02:16:04.988Z,83.69
2019-04-01T02:18:33.716Z,83.16
2019-04-01T02:21:02.659Z,83.26
2019-04-01T02:23:32.013Z,82.59
2019-04-01T02:26:00.858Z,82.89
2019-04-01T02:28:30.065Z,83.33
2019-04-01T02:30:59.051Z,83.45
2019-04-01T02:33:27.949Z,83.34
2019-04-01T02:35:56.856Z,84.34
2019-04-01T02:38:25.883Z,83.80
2019-04-01T02:40:54.825Z,84.45
2019-04-01T02:43:23.729Z,84.90
2019-04-01T02:45:52.708Z,85.36
2019-04-01T02:48:21.584Z,84.60
2019-04-01T02:50:50.538Z,84.55
2019-04-01T02:53:19.491Z,84.12
2019-04-01T02:55:48.588Z,83.70
2019-04-01T02:58:17.457Z,83.24
2019-04-01T03:00:46.468Z,82.62
2019-04-01T03:03:15.078Z,82.87
2019-04-01T03:05:44.045Z,83.84
2019-04-01T03:08:12.962Z,84.21
2019-04-01T03:10:41.918Z,84.11
2019-04-01T03:13:10.822Z,83.68
2019-04-01T03:15:39.459Z,83.46
2019-04-01T03:18:08.498Z,83.42
2019-04-01T03:20:37.497Z,83.18
2019-04-01T03:23:06.415Z,83.42
2019-04-01T03:25:35.047Z,84.45
2019-04-01T03:28:03.962Z,84.09
2019-04-01T03:30:32.654Z,84.78
2019-04-01T03:33:01.655Z,84.88
2019-04-01T03:35:30.435Z,85.65
2019-04-01T03:37:59.637Z,87.07
2019-04-01T03:40:28.524Z,87.16
2019-04-01T03:42:57.725Z,86.27
2019-04-01T03:45:26.612Z,84.99
2019-04-01T03:47:55.510Z,85.09
2019-04-01T03:50:24.501Z,85.17
2019-04-01T03:52:53.697Z,84.83
2019-04-01T03:55:22.584Z,84.48
2019-04-01T03:57:51.245Z,84.31
2019-04-01T04:00:20.578Z,84.64
2019-04-01T04:02:49.574Z,84.57
2019-04-01T04:05:18.194Z,84.57
2019-04-01T04:07:47.455Z,84.47
2019-04-01T04:10:16.450Z,83.88
2019-04-01T04:12:45.065Z,83.71
2019-04-01T04:15:14.281Z,83.75
2019-04-01T04:17:43.534Z,83.09
2019-04-01T04:20:12.661Z,83.79
2019-04-01T04:22:41.265Z,84.36
2019-04-01T04:25:10.316Z,83.58
2019-04-01T04:27:39.302Z,83.65
2019-04-01T04:30:08.295Z,83.92
2019-04-01T04:32:37.285Z,83.88
2019-04-01T04:35:06.283Z,83.13
2019-04-01T04:37:35.277Z,82.66
2019-04-01T04:40:04.271Z,82.20
2019-04-01T04:42:33.158Z,82.21
2019-04-01T04:45:02.148Z,82.57
2019-04-01T04:47:31.057Z,82.41
2019-04-01T04:50:00.430Z,83.69
2019-04-01T04:52:29.040Z,84.15
2019-04-01T04:54:58.332Z,83.66
2019-04-01T04:57:27.223Z,84.02
2019-04-01T04:59:56.132Z,84.72
2019-04-01T05:02:25.200Z,84.52
2019-04-01T05:04:53.832Z,83.90
2019-04-01T05:07:22.796Z,83.86
2019-04-01T05:09:51.405Z,83.58
2019-04-01T05:12:20.366Z,84.99
2019-04-01T05:14:48.981Z,85.21
2019-04-01T05:17:18.253Z,83.96
2019-04-01T05:19:46.880Z,84.70
2019-04-01T05:22:16.347Z,85.48
2019-04-01T05:24:45.541Z,85.52
2019-04-01T05:27:15.150Z,85.27
2019-04-01T05:29:44.545Z,85.46
2019-04-01T05:32:13.954Z,85.05
2019-04-01T05:34:45.119Z,84.90
2019-04-01T05:37:14.092Z,83.95
2019-04-01T05:39:43.396Z,84.04
2019-04-01T05:42:12.433Z,83.65
2019-04-01T05:44:41.686Z,84.07
2019-04-01T05:47:10.685Z,83.28
2019-04-01T05:49:39.307Z,82.80
2019-04-01T05:52:08.672Z,82.09
2019-04-01T05:54:37.673Z,81.76
2019-04-01T05:57:06.861Z,81.71
2019-04-01T05:59:35.488Z,81.42
2019-04-01T06:02:05.058Z,81.52
2019-04-01T06:04:34.374Z,81.92
2019-04-01T06:07:03.359Z,81.44
2019-04-01T06:09:31.972Z,80.70
2019-04-01T06:12:01.109Z,80.67
2019-04-01T06:14:30.063Z,80.72
2019-04-01T06:16:59.014Z,80.81
2019-04-01T06:19:27.720Z,80.65
2019-04-01T06:21:56.442Z,80.82
2019-04-01T06:24:25.374Z,80.79
2019-04-01T06:26:54.121Z,81.12
2019-04-01T06:29:23.062Z,81.00
2019-04-01T06:31:51.959Z,81.44
2019-04-01T06:34:21.257Z,80.46
2019-04-01T06:36:50.687Z,79.62
2019-04-01T06:39:19.652Z,80.08
2019-04-01T06:41:48.658Z,83.34
2019-04-01T06:44:17.307Z,80.33
2019-04-01T06:46:46.225Z,79.90
2019-04-01T06:49:15.222Z,79.44
2019-04-01T06:51:44.619Z,79.28
2019-04-01T06:54:13.238Z,78.95
2019-04-01T06:56:42.198Z,78.45
2019-04-01T06:59:10.884Z,75.73
2019-04-01T07:01:39.810Z,74.25
2019-04-01T07:04:08.448Z,71.36
2019-04-01T07:06:37.354Z,70.57
2019-04-01T07:09:06.722Z,67.99
2019-04-01T07:11:35.736Z,67.40
2019-04-01T07:14:05.311Z,66.80
2019-04-01T07:16:34.294Z,66.05
2019-04-01T07:19:03.002Z,64.66
2019-04-01T07:21:31.612Z,64.10
2019-04-01T07:24:00.925Z,63.83
2019-04-01T07:26:29.607Z,64.03
2019-04-01T07:28:58.612Z,63.79
2019-04-01T07:31:27.808Z,63.75
2019-04-01T07:33:56.795Z,61.73
2019-04-01T07:36:25.499Z,61.73
2019-04-01T07:38:54.543Z,61.62
2019-04-01T07:41:23.453Z,60.97
2019-04-01T07:43:52.074Z,59.41
2019-04-01T07:46:21.054Z,59.41
2019-04-01T07:48:50.187Z,59.68
2019-04-01T07:51:19.137Z,58.46
2019-04-01T07:53:48.296Z,57.21
2019-04-01T07:56:17.536Z,54.06
2019-04-01T07:58:46.174Z,54.48
2019-04-01T08:01:14.805Z,54.01
2019-04-01T08:03:44.114Z,53.68
2019-04-01T08:06:13.511Z,52.05
2019-04-01T08:08:46.121Z,50.28
2019-04-01T08:11:13.649Z,50.28
2019-04-01T08:13:42.640Z,50.84
2019-04-01T08:16:11.633Z,51.49
2019-04-01T08:18:40.836Z,51.73
2019-04-01T08:21:09.483Z,51.30
2019-04-01T08:23:38.827Z,48.97
2019-04-01T08:26:07.827Z,48.97
2019-04-01T08:28:36.550Z,49.96
2019-04-01T08:31:05.596Z,49.57
2019-04-01T08:33:34.488Z,46.67
2019-04-01T08:36:03.897Z,47.54
2019-04-01T08:38:32.884Z,47.54
2019-04-01T08:41:01.623Z,49.15
2019-04-01T08:43:30.570Z,49.45
2019-04-01T08:46:00.014Z,49.45
2019-04-01T08:48:29.273Z,49.79
2019-04-01T08:50:58.294Z,48.75
2019-04-01T08:53:27.568Z,48.55
2019-04-01T08:56:00.862Z,48.66
2019-04-01T08:58:27.501Z,48.93
2019-04-01T09:00:56.491Z,46.20
2019-04-01T09:03:25.591Z,47.39
2019-04-01T09:05:54.700Z,44.98
2019-04-01T09:08:24.431Z,45.69
2019-04-01T09:10:53.425Z,44.81
2019-04-01T09:13:22.688Z,46.07
2019-04-01T09:15:51.750Z,44.81
2019-04-01T09:18:20.677Z,42.82
2019-04-01T09:20:49.770Z,39.53
2019-04-01T09:23:18.402Z,39.53
2019-04-01T09:25:47.662Z,38.04
2019-04-01T09:28:16.651Z,36.35
2019-04-01T09:30:45.548Z,36.67
2019-04-01T09:33:14.540Z,37.83
2019-04-01T09:35:43.532Z,40.96
2019-04-01T09:38:12.420Z,41.40
2019-04-01T09:40:41.052Z,40.51
2019-04-01T09:43:13.672Z,37.82
2019-04-01T09:45:40.644Z,37.91
2019-04-01T09:48:09.277Z,37.50
2019-04-01T09:50:38.520Z,38.63
2019-04-01T09:53:07.268Z,38.91
2019-04-01T09:55:36.869Z,38.75
2019-04-01T09:58:06.113Z,36.35
2019-04-01T10:00:35.414Z,38.19
2019-04-01T10:03:04.617Z,38.35
2019-04-01T10:05:33.604Z,38.43
2019-04-01T10:08:02.501Z,37.85
2019-04-01T10:10:31.801Z,36.90
2019-04-01T10:13:00.793Z,37.74
2019-04-01T10:15:29.791Z,38.91
2019-04-01T10:17:58.831Z,39.15
2019-04-01T10:20:27.779Z,37.59
2019-04-01T10:22:56.423Z,36.16
2019-04-01T10:25:25.383Z,36.46
2019-04-01T10:27:54.346Z,36.29
2019-04-01T10:30:23.239Z,34.57
2019-04-01T10:32:52.434Z,34.08
2019-04-01T10:35:21.430Z,33.14
2019-04-01T10:37:50.061Z,32.59
2019-04-01T10:40:18.770Z,34.81
2019-04-01T10:42:47.405Z,33.61
2019-04-01T10:45:16.790Z,33.75
2019-04-01T10:47:45.542Z,33.94
2019-04-01T10:50:14.808Z,31.66
2019-04-01T10:52:44.183Z,32.35
2019-04-01T10:55:13.521Z,32.69
2019-04-01T10:57:43.697Z,32.02
2019-04-01T11:00:13.272Z,32.94
2019-04-01T11:02:42.004Z,33.28
2019-04-01T11:05:11.196Z,33.95
2019-04-01T11:07:40.130Z,33.54
2019-04-01T11:10:11.741Z,34.25
2019-04-01T11:12:40.067Z,32.22
2019-04-01T11:15:09.472Z,31.73
2019-04-01T11:17:38.522Z,33.42
2019-04-01T11:20:08.206Z,32.87
2019-04-01T11:22:37.356Z,32.08
2019-04-01T11:25:06.462Z,31.88
2019-04-01T11:27:35.722Z,31.63
2019-04-01T11:30:05.487Z,32.29
2019-04-01T11:32:34.532Z,33.30
2019-04-01T11:35:03.313Z,32.81
2019-04-01T11:37:32.234Z,33.48
2019-04-01T11:40:01.106Z,34.57
2019-04-01T11:42:30.463Z,33.62
2019-04-01T11:44:59.182Z,33.08
2019-04-01T11:47:28.232Z,34.31
2019-04-01T11:49:57.502Z,33.69
2019-04-01T11:52:26.181Z,34.49
2019-04-01T11:54:55.066Z,33.91
2019-04-01T11:57:24.058Z,33.52
2019-04-01T11:59:53.380Z,32.52
2019-04-01T12:02:22.031Z,32.35
2019-04-01T12:04:52.804Z,32.18
2019-04-01T12:07:21.981Z,31.85
2019-04-01T12:09:52.397Z,31.15
2019-04-01T12:12:23.911Z,32.81
2019-04-01T12:14:52.446Z,32.09
2019-04-01T12:17:21.437Z,32.36
2019-04-01T12:19:53.174Z,32.56
2019-04-01T12:22:20.887Z,30.27
2019-04-01T12:24:50.269Z,30.82
2019-04-01T12:27:19.584Z,32.01
2019-04-01T12:29:48.486Z,31.02
2019-04-01T12:32:17.786Z,31.56
2019-04-01T12:34:46.875Z,32.24
2019-04-01T12:37:16.267Z,33.57
2019-04-01T12:39:47.571Z,31.79
2019-04-01T12:42:16.784Z,31.63
2019-04-01T12:44:46.306Z,29.85
2019-04-01T12:47:15.009Z,30.42
2019-04-01T12:49:43.722Z,31.48
2019-04-01T12:52:13.081Z,32.51
2019-04-01T12:54:42.074Z,31.21
2019-04-01T12:57:11.076Z,30.35
2019-04-01T12:59:39.734Z,30.09
2019-04-01T13:02:08.954Z,29.74
2019-04-01T13:04:37.856Z,31.18
2019-04-01T13:07:06.858Z,31.23
2019-04-01T13:09:35.483Z,32.03
2019-04-01T13:12:04.933Z,30.75
2019-04-01T13:14:34.234Z,29.74
2019-04-01T13:17:02.866Z,29.84
2019-04-01T13:19:31.505Z,30.19
2019-04-01T13:22:00.496Z,30.14
2019-04-01T13:24:29.395Z,30.55
2019-04-01T13:27:00.182Z,30.71
2019-04-01T13:29:28.734Z,30.00
2019-04-01T13:32:00.454Z,30.72
2019-04-01T13:34:28.435Z,28.43
2019-04-01T13:36:57.327Z,29.57
2019-04-01T13:39:25.998Z,28.86
2019-04-01T13:41:56.316Z,29.23
2019-04-01T13:44:36.016Z,30.15
2019-04-01T13:46:56.060Z,30.33
2019-04-01T13:49:25.100Z,29.39
2019-04-01T13:51:54.364Z,29.49
2019-04-01T13:54:22.996Z,29.66
2019-04-01T13:56:52.244Z,28.99
2019-04-01T13:59:21.549Z,28.84
2019-04-01T14:01:50.833Z,28.21
2019-04-01T14:04:20.145Z,28.82
2019-04-01T14:06:49.548Z,30.20
2019-04-01T14:09:18.179Z,30.24
2019-04-01T14:11:46.846Z,30.17
2019-04-01T14:14:16.120Z,30.10
2019-04-01T14:16:45.528Z,30.06
2019-04-01T14:19:14.420Z,28.92
2019-04-01T14:21:43.617Z,28.51
2019-04-01T14:24:12.516Z,29.35
2019-04-01T14:26:41.508Z,29.29
2019-04-01T14:29:10.209Z,29.49
2019-04-01T14:31:39.489Z,29.28
2019-04-01T14:34:13.386Z,29.70
2019-04-01T14:36:38.927Z,29.25
2019-04-01T14:39:07.699Z,29.83
2019-04-01T14:41:36.896Z,29.92
2019-04-01T14:44:05.713Z,30.49
2019-04-01T14:46:34.786Z,30.44
2019-04-01T14:49:03.787Z,29.82
2019-04-01T14:51:32.795Z,29.55
2019-04-01T14:54:01.763Z,28.84
2019-04-01T14:56:30.760Z,27.17
2019-04-01T14:58:59.655Z,28.11
2019-04-01T15:01:30.183Z,28.55
2019-04-01T15:03:59.491Z,27.77
2019-04-01T15:06:28.472Z,27.69
2019-04-01T15:08:57.100Z,28.39
2019-04-01T15:11:26.051Z,26.43
2019-04-01T15:13:54.669Z,26.59
2019-04-01T15:16:23.940Z,28.09
2019-04-01T15:18:53.137Z,26.85
2019-04-01T15:21:22.247Z,27.91
2019-04-01T15:23:53.262Z,28.97
2019-04-01T15:26:21.799Z,28.71
2019-04-01T15:28:50.417Z,28.82
2019-04-01T15:31:19.364Z,29.03
2019-04-01T15:33:48.332Z,29.70
2019-04-01T15:36:17.629Z,29.59
2019-04-01T15:38:46.930Z,28.99
2019-04-01T15:41:16.229Z,28.42
2019-04-01T15:43:45.539Z,28.38
2019-04-01T15:46:14.197Z,29.00
2019-04-01T15:48:43.110Z,28.44
2019-04-01T15:51:12.421Z,28.84
2019-04-01T15:53:41.408Z,29.15
2019-04-01T15:56:10.705Z,29.43
2019-04-01T15:58:40.156Z,29.22
2019-04-01T16:01:08.971Z,29.08
2019-04-01T16:03:38.306Z,28.59
2019-04-01T16:06:07.672Z,28.68
2019-04-01T16:08:36.617Z,28.23
2019-04-01T16:11:06.099Z,28.75
2019-04-01T16:13:35.648Z,29.34
2019-04-01T16:16:04.602Z,30.09
2019-04-01T16:18:33.612Z,29.65
2019-04-01T16:27:43.023Z,30.56
2019-04-01T16:30:12.231Z,30.81
2019-04-01T16:32:40.875Z,30.35
2019-04-01T16:35:09.721Z,30.58
2019-04-01T16:37:38.377Z,30.55
2019-04-01T16:40:07.180Z,30.81
2019-04-01T16:42:35.802Z,31.29
2019-04-01T16:45:06.326Z,31.48
2019-04-01T16:47:35.334Z,31.48
2019-04-01T16:50:05.330Z,32.32
2019-04-01T16:52:33.926Z,32.29
2019-04-01T16:55:04.747Z,32.09
2019-04-01T16:57:34.103Z,32.05
2019-04-01T17:00:05.064Z,32.25
2019-04-01T17:02:33.853Z,32.38
2019-04-01T17:05:02.521Z,32.97
2019-04-01T17:07:31.381Z,32.50
2019-04-01T17:10:00.044Z,32.38
2019-04-01T17:12:28.756Z,32.36
2019-04-01T17:14:57.359Z,32.67
2019-04-01T17:17:26.542Z,32.98
2019-04-01T17:19:55.467Z,33.08
2019-04-01T17:22:24.322Z,33.40
2019-04-01T17:24:52.993Z,33.38
2019-04-01T17:27:21.706Z,33.69
2019-04-01T17:29:50.319Z,33.96
2019-04-01T17:32:19.150Z,34.50
2019-04-01T17:34:48.158Z,35.17
2019-04-01T17:37:17.670Z,35.03
2019-04-01T17:39:46.672Z,35.67
2019-04-01T17:42:16.918Z,35.86
2019-04-01T17:44:45.875Z,36.24
2019-04-01T17:47:14.868Z,36.63
2019-04-01T17:49:43.685Z,37.15
2019-04-01T17:52:12.512Z,37.43
2019-04-01T17:54:41.215Z,37.27
2019-04-01T17:57:09.819Z,37.67
2019-04-01T17:59:38.524Z,38.25
2019-04-01T18:02:11.670Z,38.83
2019-04-01T18:04:40.900Z,39.67
2019-04-01T18:07:09.620Z,39.67
2019-04-01T18:09:38.563Z,40.10
2019-04-01T18:12:07.193Z,40.25
2019-04-01T18:14:35.828Z,39.95
2019-04-01T18:17:04.845Z,40.24
2019-04-01T18:19:33.457Z,40.39
2019-04-01T18:22:02.087Z,40.49
2019-04-01T18:24:30.726Z,40.69
2019-04-01T18:27:00.018Z,41.21
2019-04-01T18:29:29.199Z,41.08
2019-04-01T18:31:59.094Z,41.35
2019-04-01T18:34:28.098Z,41.33
2019-04-01T18:36:57.197Z,41.27
2019-04-01T18:39:29.716Z,41.57
2019-04-01T18:41:56.799Z,41.71
2019-04-01T18:44:25.858Z,41.65
2019-04-01T18:46:54.441Z,41.61
2019-04-01T18:49:23.402Z,42.44
2019-04-01T18:51:52.806Z,42.48
2019-04-01T18:54:21.457Z,42.76
2019-04-01T18:56:50.931Z,43.28
2019-04-01T18:59:19.784Z,43.70
2019-04-01T19:01:51.314Z,44.67
2019-04-01T19:04:20.016Z,45.25
2019-04-01T19:06:49.899Z,46.22
2019-04-01T19:09:19.043Z,46.36
2019-04-01T19:11:47.927Z,47.73
2019-04-01T19:14:16.946Z,48.86
2019-04-01T19:17:15.843Z,52.10
2019-04-01T19:19:44.833Z,53.46
2019-04-01T19:22:13.544Z,54.51
2019-04-01T19:24:42.596Z,55.99
2019-04-01T19:27:11.202Z,56.79
2019-04-01T19:29:42.903Z,58.29
